Terminal Aerodrome Forecast
Issued by NWS Jacksonville, FL

Home | Current Version | Previous Version | Text Only | Print | Product List | Glossary On
Versions: 1 2 3 4 5 6 7 8 9 10 11 12 13 14 15 16 17 18 19 20
726
FTUS42 KJAX 080520
TAFGNV
TAF
KGNV 080520Z 0806/0906 26006KT P6SM SKC
     FM081600 24018G28KT P6SM FEW050 SCT250
     FM082200 25015G25KT P6SM SCT030 BKN060
     FM090400 28015G25KT P6SM SCT030 BKN060=

USA.gov is the U.S. government's official web portal to all federal, state and local government web resources and services.